createdAt,value
2019-05-16T00:01:19.318Z,14.43
2019-05-16T00:03:51.751Z,14.39
2019-05-16T00:06:23.810Z,14.33
2019-05-16T00:08:58.475Z,14.28
2019-05-16T00:11:29.598Z,14.25
2019-05-16T00:14:01.253Z,14.29
2019-05-16T00:16:33.239Z,14.25
2019-05-16T00:19:04.762Z,14.21
2019-05-16T00:21:38.317Z,14.18
2019-05-16T00:24:10.129Z,14.13
2019-05-16T00:26:42.421Z,14.08
2019-05-16T00:29:14.169Z,14.00
2019-05-16T00:31:48.522Z,13.94
2019-05-16T00:34:20.135Z,13.90
2019-05-16T00:36:51.788Z,13.90
2019-05-16T00:39:23.933Z,13.93
2019-05-16T00:41:58.222Z,13.91
2019-05-16T00:44:29.622Z,13.86
2019-05-16T00:47:01.472Z,13.83
2019-05-16T00:49:33.650Z,13.77
2019-05-16T00:52:07.669Z,13.72
2019-05-16T00:54:39.003Z,13.68
2019-05-16T00:57:11.578Z,13.62
2019-05-16T00:59:43.957Z,13.57
2019-05-16T01:02:15.506Z,13.54
2019-05-16T01:04:48.730Z,13.52
2019-05-16T01:07:20.465Z,13.51
2019-05-16T01:09:52.609Z,13.50
2019-05-16T01:12:24.382Z,13.48
2019-05-16T01:14:58.291Z,13.49
2019-05-16T01:17:29.621Z,13.48
2019-05-16T01:20:01.511Z,13.50
2019-05-16T01:22:34.384Z,13.54
2019-05-16T01:25:09.320Z,13.56
2019-05-16T01:27:40.563Z,13.55
2019-05-16T01:30:12.832Z,13.59
2019-05-16T01:32:49.262Z,13.56
2019-05-16T01:35:21.471Z,13.54
2019-05-16T01:37:53.620Z,13.50
2019-05-16T01:40:25.492Z,13.51
2019-05-16T01:42:58.069Z,13.52
2019-05-16T01:45:30.220Z,13.51
2019-05-16T01:48:02.101Z,13.52
2019-05-16T01:50:34.372Z,13.52
2019-05-16T01:53:08.454Z,13.53
2019-05-16T01:55:39.828Z,13.53
2019-05-16T01:58:12.019Z,13.49
2019-05-16T02:00:52.325Z,13.47
2019-05-16T02:03:19.017Z,13.48
2019-05-16T02:05:50.855Z,13.49
2019-05-16T02:08:22.786Z,13.50
2019-05-16T02:10:54.403Z,13.49
2019-05-16T02:13:28.527Z,13.48
2019-05-16T02:15:59.832Z,13.49
2019-05-16T02:18:31.692Z,13.49
2019-05-16T02:21:03.758Z,13.49
2019-05-16T02:23:37.779Z,13.51
2019-05-16T02:26:09.028Z,13.53
2019-05-16T02:28:43.701Z,13.53
2019-05-16T02:31:15.426Z,13.54
2019-05-16T02:33:50.812Z,13.55
2019-05-16T02:36:21.930Z,13.57
2019-05-16T02:38:55.585Z,13.57
2019-05-16T02:41:27.551Z,13.56
2019-05-16T02:44:01.222Z,13.54
2019-05-16T02:46:33.220Z,13.48
2019-05-16T02:49:05.388Z,13.44
2019-05-16T02:51:40.404Z,13.44
2019-05-16T02:54:11.221Z,13.47
2019-05-16T02:56:52.822Z,13.56
2019-05-16T02:59:24.702Z,13.68
2019-05-16T03:01:56.475Z,13.82
2019-05-16T03:04:30.655Z,13.93
2019-05-16T03:07:03.239Z,14.01
2019-05-16T03:09:36.069Z,14.05
2019-05-16T03:12:10.572Z,14.10
2019-05-16T03:14:42.006Z,14.17
2019-05-16T03:17:15.719Z,14.25
2019-05-16T03:19:51.071Z,14.32
2019-05-16T03:22:24.741Z,14.40
2019-05-16T03:24:56.805Z,14.47
2019-05-16T03:27:30.595Z,14.54
2019-05-16T03:30:02.687Z,14.61
2019-05-16T03:32:34.888Z,14.70
2019-05-16T03:35:07.956Z,14.75
2019-05-16T03:37:54.493Z,14.81
2019-05-16T03:40:27.264Z,14.88
2019-05-16T03:43:01.657Z,14.94
2019-05-16T03:45:33.746Z,15.03
2019-05-16T03:48:05.492Z,15.15
2019-05-16T03:50:37.139Z,15.28
2019-05-16T03:53:11.730Z,15.42
2019-05-16T03:55:42.187Z,15.53
2019-05-16T03:58:14.254Z,15.64
2019-05-16T04:00:55.069Z,15.76
2019-05-16T04:03:28.803Z,15.87
2019-05-16T04:06:01.646Z,15.98
2019-05-16T04:08:33.691Z,16.09
2019-05-16T04:11:05.542Z,16.22
2019-05-16T04:13:40.812Z,16.34
2019-05-16T04:16:11.850Z,16.46
2019-05-16T04:18:43.993Z,16.61
2019-05-16T04:21:17.723Z,16.77
2019-05-16T04:23:50.517Z,16.91
2019-05-16T04:26:22.553Z,17.07
2019-05-16T04:28:54.707Z,17.23
2019-05-16T04:31:26.670Z,17.40
2019-05-16T04:34:01.130Z,17.58
2019-05-16T04:36:32.661Z,17.74
2019-05-16T04:39:06.435Z,17.93
2019-05-16T04:41:40.911Z,18.12
2019-05-16T04:44:12.004Z,18.30
2019-05-16T04:46:43.713Z,18.47
2019-05-16T04:49:15.334Z,18.64
2019-05-16T04:51:47.038Z,18.80
2019-05-16T04:54:21.518Z,18.97
2019-05-16T04:56:52.250Z,19.12
2019-05-16T04:59:24.011Z,19.27
2019-05-16T05:01:57.306Z,19.40
2019-05-16T05:04:30.632Z,19.52
2019-05-16T05:07:02.733Z,19.67
2019-05-16T05:09:34.515Z,19.82
2019-05-16T05:12:06.146Z,19.96
2019-05-16T05:14:41.324Z,20.11
2019-05-16T05:17:11.619Z,20.27
2019-05-16T05:19:43.688Z,20.41
2019-05-16T05:22:15.650Z,20.55
2019-05-16T05:24:50.817Z,20.66
2019-05-16T05:27:22.551Z,20.82
2019-05-16T05:29:55.725Z,20.94
2019-05-16T05:32:27.581Z,21.10
2019-05-16T05:34:59.981Z,21.26
2019-05-16T05:37:31.914Z,21.39
2019-05-16T05:40:05.474Z,21.57
2019-05-16T05:42:39.771Z,21.69
2019-05-16T05:45:11.875Z,21.78
2019-05-16T05:47:43.878Z,21.92
2019-05-16T05:50:15.828Z,22.03
2019-05-16T05:52:47.583Z,22.17
2019-05-16T05:55:20.192Z,22.29
2019-05-16T05:57:51.934Z,22.36
2019-05-16T06:00:24.099Z,22.45
2019-05-16T06:02:56.165Z,22.57
2019-05-16T06:05:30.444Z,22.65
2019-05-16T06:08:01.645Z,22.74
2019-05-16T06:10:33.586Z,22.82
2019-05-16T06:13:05.532Z,22.91
2019-05-16T06:15:37.209Z,22.97
2019-05-16T06:18:10.819Z,23.05
2019-05-16T06:20:42.650Z,23.12
2019-05-16T06:23:14.529Z,23.21
2019-05-16T06:25:46.595Z,23.28
2019-05-16T06:28:20.689Z,23.35
2019-05-16T06:30:52.777Z,23.41
2019-05-16T06:33:24.736Z,23.52
2019-05-16T06:35:56.373Z,23.61
2019-05-16T06:38:29.862Z,23.68
2019-05-16T06:41:01.424Z,23.70
2019-05-16T06:43:33.755Z,23.78
2019-05-16T06:46:05.780Z,23.91
2019-05-16T06:48:39.808Z,23.99
2019-05-16T06:51:11.239Z,24.11
2019-05-16T06:53:43.287Z,24.19
2019-05-16T06:56:15.168Z,24.24
2019-05-16T06:58:50.970Z,24.28
2019-05-16T07:01:21.010Z,24.32
2019-05-16T07:03:52.995Z,24.39
2019-05-16T07:06:47.659Z,24.38
2019-05-16T07:09:01.028Z,24.47
2019-05-16T07:11:34.610Z,24.62
2019-05-16T07:14:06.892Z,24.78
2019-05-16T07:16:41.309Z,24.99
2019-05-16T07:19:13.081Z,25.20
2019-05-16T07:21:44.915Z,25.41
2019-05-16T07:24:17.113Z,25.56
2019-05-16T07:26:50.131Z,25.71
2019-05-16T07:29:22.045Z,25.81
2019-05-16T07:31:53.906Z,25.82
2019-05-16T07:34:25.771Z,25.89
2019-05-16T07:37:00.326Z,25.99
2019-05-16T07:39:31.050Z,25.99
2019-05-16T07:42:03.305Z,26.03
2019-05-16T07:44:35.346Z,26.03
2019-05-16T07:47:11.079Z,25.99
2019-05-16T07:49:42.140Z,25.94
2019-05-16T07:52:13.991Z,26.01
2019-05-16T07:54:45.772Z,26.07
2019-05-16T07:57:20.458Z,26.20
2019-05-16T07:59:50.685Z,26.37
2019-05-16T08:02:22.463Z,26.55
2019-05-16T08:04:54.221Z,26.68
2019-05-16T08:07:26.210Z,26.71
2019-05-16T08:09:59.898Z,26.68
2019-05-16T08:12:33.063Z,26.72
2019-05-16T08:15:07.003Z,26.74
2019-05-16T08:17:44.185Z,26.74
2019-05-16T08:20:11.765Z,26.75
2019-05-16T08:22:44.136Z,26.73
2019-05-16T08:25:16.204Z,26.81
2019-05-16T08:27:51.691Z,26.78
2019-05-16T08:30:21.458Z,26.65
2019-05-16T08:32:53.429Z,26.64
2019-05-16T08:35:25.374Z,26.62
2019-05-16T08:38:00.818Z,26.60
2019-05-16T08:40:31.643Z,26.54
2019-05-16T08:43:03.324Z,26.51
2019-05-16T08:45:35.570Z,26.53
2019-05-16T08:48:07.329Z,26.57
2019-05-16T08:50:42.086Z,26.49
2019-05-16T08:53:13.737Z,26.49
2019-05-16T08:55:45.352Z,26.51
2019-05-16T08:58:17.296Z,26.50
2019-05-16T09:00:55.325Z,26.50
2019-05-16T09:03:24.647Z,26.44
2019-05-16T09:05:56.305Z,26.35
2019-05-16T09:08:28.138Z,26.33
2019-05-16T09:11:04.850Z,26.32
2019-05-16T09:13:33.515Z,26.32
2019-05-16T09:16:07.722Z,26.33
2019-05-16T09:18:41.300Z,26.34
2019-05-16T09:21:12.156Z,26.34
2019-05-16T09:23:43.691Z,26.32
2019-05-16T09:26:18.987Z,26.26
2019-05-16T09:28:49.018Z,26.28
2019-05-16T09:31:21.066Z,26.32
2019-05-16T09:33:53.013Z,26.38
2019-05-16T09:36:27.767Z,26.39
2019-05-16T09:38:58.362Z,26.36
2019-05-16T09:41:44.889Z,26.41
2019-05-16T09:44:03.830Z,26.48
2019-05-16T09:46:37.590Z,26.50
2019-05-16T09:49:19.570Z,26.49
2019-05-16T09:51:42.394Z,26.50
2019-05-16T09:54:16.557Z,26.58
2019-05-16T09:56:46.837Z,26.69
2019-05-16T09:59:18.476Z,26.80
2019-05-16T10:01:50.312Z,26.88
2019-05-16T10:04:22.497Z,26.90
2019-05-16T10:06:57.026Z,26.91
2019-05-16T10:09:41.277Z,26.90
2019-05-16T10:12:11.373Z,26.99
2019-05-16T10:14:37.630Z,27.00
2019-05-16T10:17:10.907Z,27.01
2019-05-16T10:19:42.778Z,27.05
2019-05-16T10:22:16.900Z,27.08
2019-05-16T10:24:47.924Z,27.13
2019-05-16T10:27:19.780Z,27.25
2019-05-16T10:29:51.547Z,27.26
2019-05-16T10:32:23.402Z,27.23
2019-05-16T10:34:57.261Z,27.29
2019-05-16T10:37:29.159Z,27.30
2019-05-16T10:40:01.222Z,27.26
2019-05-16T10:42:33.305Z,27.36
2019-05-16T10:45:08.591Z,27.42
2019-05-16T10:47:41.047Z,27.47
2019-05-16T10:50:13.988Z,27.51
2019-05-16T10:52:48.843Z,27.48
2019-05-16T10:55:19.913Z,27.50
2019-05-16T10:57:51.915Z,27.57
2019-05-16T11:00:57.549Z,27.69
2019-05-16T11:03:00.713Z,27.76
2019-05-16T11:05:36.035Z,27.80
2019-05-16T11:08:08.246Z,27.80
2019-05-16T11:10:39.656Z,27.86
2019-05-16T11:13:11.583Z,27.96
2019-05-16T11:15:43.660Z,28.07
2019-05-16T11:18:17.553Z,28.06
2019-05-16T11:20:49.702Z,28.10
2019-05-16T11:23:23.724Z,28.05
2019-05-16T11:25:55.481Z,28.05
2019-05-16T11:28:27.872Z,28.10
2019-05-16T11:31:03.510Z,28.16
2019-05-16T11:33:32.232Z,28.19
2019-05-16T11:36:08.040Z,28.31
2019-05-16T11:38:39.631Z,28.35
2019-05-16T11:41:11.797Z,28.37
2019-05-16T11:43:43.753Z,28.48
2019-05-16T11:46:16.677Z,28.49
2019-05-16T11:48:49.205Z,28.47
2019-05-16T11:51:21.179Z,28.44
2019-05-16T11:53:53.138Z,28.34
2019-05-16T11:56:25.312Z,28.35
2019-05-16T11:58:57.152Z,28.36
2019-05-16T12:01:29.233Z,28.42
2019-05-16T12:04:01.305Z,28.47
2019-05-16T12:06:33.054Z,28.45
2019-05-16T12:44:16.517Z,28.70
2019-05-16T12:46:48.595Z,28.67
2019-05-16T12:49:23.726Z,28.70
2019-05-16T12:52:00.400Z,28.77
2019-05-16T12:54:36.872Z,28.79
2019-05-16T12:57:04.868Z,28.82
2019-05-16T12:59:42.233Z,28.87
2019-05-16T13:02:13.507Z,28.95
2019-05-16T13:04:47.065Z,28.94
2019-05-16T13:07:22.190Z,28.96
2019-05-16T13:09:53.950Z,28.85
2019-05-16T13:12:27.111Z,28.72
2019-05-16T13:14:59.111Z,28.64
2019-05-16T13:17:30.977Z,28.55
2019-05-16T13:20:03.140Z,28.58
2019-05-16T13:22:47.320Z,28.61
2019-05-16T13:25:21.434Z,28.61
2019-05-16T13:27:52.848Z,28.66
2019-05-16T13:30:26.808Z,28.74
2019-05-16T13:32:58.718Z,28.91
2019-05-16T13:35:30.300Z,29.11
2019-05-16T13:38:02.150Z,29.24
2019-05-16T13:40:33.891Z,29.43
2019-05-16T13:43:17.408Z,29.50
2019-05-16T13:45:49.301Z,29.59
2019-05-16T13:48:21.366Z,29.67
2019-05-16T13:51:07.570Z,29.67
2019-05-16T13:53:27.151Z,29.74
2019-05-16T13:55:59.079Z,29.89
2019-05-16T13:58:30.937Z,30.17
2019-05-16T14:01:02.829Z,30.46
2019-05-16T14:03:37.209Z,30.61
2019-05-16T14:06:08.176Z,30.88
2019-05-16T14:08:40.022Z,31.04
2019-05-16T14:11:17.162Z,31.26
2019-05-16T14:13:48.163Z,31.18
2019-05-16T14:16:23.505Z,31.18
2019-05-16T14:18:57.418Z,31.31
2019-05-16T14:21:29.175Z,31.17
2019-05-16T14:24:01.237Z,30.93
2019-05-16T14:26:33.412Z,30.92
2019-05-16T14:29:07.914Z,30.93
2019-05-16T14:31:38.763Z,30.98
2019-05-16T14:34:10.613Z,31.01
2019-05-16T14:36:42.686Z,31.07
2019-05-16T14:39:18.915Z,31.42
2019-05-16T14:41:48.208Z,31.79
2019-05-16T14:44:21.424Z,31.97
2019-05-16T14:46:53.134Z,32.02
2019-05-16T14:49:28.472Z,32.20
2019-05-16T14:51:58.232Z,32.55
2019-05-16T14:54:29.821Z,32.88
2019-05-16T14:57:01.881Z,33.23
2019-05-16T14:59:36.343Z,33.51
2019-05-16T15:02:07.724Z,33.96
2019-05-16T15:04:39.386Z,34.31
2019-05-16T15:07:11.042Z,34.47
2019-05-16T15:09:42.769Z,34.41
2019-05-16T15:12:14.396Z,34.12
2019-05-16T15:14:46.059Z,33.92
2019-05-16T15:17:17.716Z,34.30
2019-05-16T15:19:49.453Z,34.67
2019-05-16T15:22:21.084Z,34.82
2019-05-16T15:24:52.722Z,34.90
2019-05-16T15:27:26.287Z,35.02
2019-05-16T15:29:58.251Z,35.10
2019-05-16T15:32:31.774Z,35.20
2019-05-16T15:35:03.556Z,35.24
2019-05-16T15:37:37.325Z,35.65
2019-05-16T15:40:10.704Z,35.51
2019-05-16T15:42:42.526Z,35.41
2019-05-16T15:45:17.635Z,35.20
2019-05-16T15:47:48.521Z,34.91
2019-05-16T15:50:21.779Z,34.82
2019-05-16T15:52:58.987Z,34.77
2019-05-16T15:55:27.343Z,34.59
2019-05-16T15:57:59.118Z,34.51
2019-05-16T16:00:48.912Z,34.46
2019-05-16T16:03:20.860Z,34.38
2019-05-16T16:05:52.706Z,34.23
2019-05-16T16:08:28.169Z,34.19
2019-05-16T16:10:58.367Z,34.04
2019-05-16T16:13:30.535Z,33.63
2019-05-16T16:16:02.725Z,33.11
2019-05-16T16:18:34.428Z,32.67
2019-05-16T16:21:07.562Z,32.28
2019-05-16T16:23:38.734Z,32.06
2019-05-16T16:26:10.457Z,31.77
2019-05-16T16:28:43.956Z,31.55
2019-05-16T16:31:17.026Z,31.14
2019-05-16T16:33:50.048Z,30.51
2019-05-16T16:36:48.564Z,29.77
2019-05-16T16:39:26.683Z,28.98
2019-05-16T16:41:57.079Z,28.09
2019-05-16T16:44:28.521Z,27.54
2019-05-16T16:47:02.029Z,27.15
2019-05-16T16:49:39.867Z,26.72
2019-05-16T16:52:09.306Z,26.36
2019-05-16T16:54:41.278Z,26.13
2019-05-16T16:57:13.336Z,25.89
2019-05-16T16:59:47.649Z,25.47
2019-05-16T17:02:18.921Z,25.47
2019-05-16T17:04:51.889Z,25.28
2019-05-16T17:07:27.326Z,25.10
2019-05-16T17:10:00.538Z,24.92
2019-05-16T17:12:33.817Z,24.75
2019-05-16T17:15:10.142Z,24.64
2019-05-16T17:17:41.847Z,24.53
2019-05-16T17:20:14.747Z,24.45
2019-05-16T17:22:46.820Z,24.35
2019-05-16T17:25:18.964Z,24.25
2019-05-16T17:27:52.714Z,24.17
2019-05-16T17:30:27.806Z,24.07
2019-05-16T17:33:01.207Z,23.97
2019-05-16T17:35:33.167Z,23.87
2019-05-16T17:38:07.812Z,23.76
2019-05-16T17:40:39.962Z,23.65
2019-05-16T17:43:11.922Z,23.56
2019-05-16T17:45:44.001Z,23.46
2019-05-16T17:48:17.599Z,23.35
2019-05-16T17:50:48.855Z,23.24
2019-05-16T17:53:20.474Z,23.17
2019-05-16T17:55:52.657Z,23.09
2019-05-16T17:58:26.916Z,23.03
2019-05-16T18:01:00.393Z,22.98
2019-05-16T18:03:31.437Z,22.89
2019-05-16T18:06:03.159Z,22.83
2019-05-16T18:08:36.837Z,22.74
2019-05-16T18:11:08.204Z,22.67
2019-05-16T18:13:39.879Z,22.59
2019-05-16T18:16:14.706Z,22.54
2019-05-16T18:18:49.426Z,22.49
2019-05-16T18:21:21.388Z,22.43
2019-05-16T18:23:53.347Z,22.37
2019-05-16T18:26:26.892Z,22.32
2019-05-16T18:28:58.830Z,22.26
2019-05-16T18:31:32.267Z,22.23
2019-05-16T18:34:04.269Z,22.19
2019-05-16T18:36:35.924Z,22.15
2019-05-16T18:39:08.723Z,22.09
2019-05-16T18:41:43.556Z,22.04
2019-05-16T18:44:16.661Z,22.00
2019-05-16T18:46:48.505Z,21.92
2019-05-16T18:49:24.104Z,21.85
2019-05-16T18:51:57.051Z,21.78
2019-05-16T18:54:29.116Z,21.70
2019-05-16T18:57:02.279Z,21.63
2019-05-16T18:59:36.862Z,21.57
2019-05-16T19:02:11.834Z,21.48
2019-05-16T19:04:46.526Z,21.42
2019-05-16T19:07:18.847Z,21.34
2019-05-16T19:09:50.998Z,21.25
2019-05-16T19:12:22.979Z,21.14
2019-05-16T19:14:57.181Z,21.01
2019-05-16T19:17:28.530Z,20.87
2019-05-16T19:20:00.489Z,20.74
2019-05-16T19:22:32.365Z,20.61
2019-05-16T19:25:06.959Z,20.50
2019-05-16T19:27:39.135Z,20.40
2019-05-16T19:30:12.051Z,20.32
2019-05-16T19:32:46.715Z,20.24
2019-05-16T19:35:20.355Z,20.19
2019-05-16T19:37:52.366Z,20.16
2019-05-16T19:40:25.979Z,20.12
2019-05-16T19:42:57.696Z,20.07
2019-05-16T19:45:29.743Z,20.02
2019-05-16T19:48:02.135Z,19.96
2019-05-16T19:50:37.425Z,19.91
2019-05-16T19:53:09.430Z,19.85
2019-05-16T19:55:42.843Z,19.80
2019-05-16T19:58:18.077Z,19.77
2019-05-16T20:00:52.699Z,19.72
2019-05-16T20:03:27.027Z,19.69
2019-05-16T20:05:58.159Z,19.63
2019-05-16T20:08:31.554Z,19.59
2019-05-16T20:11:03.604Z,19.51
2019-05-16T20:13:36.731Z,19.45
2019-05-16T20:16:08.572Z,19.38
2019-05-16T20:18:40.631Z,19.30
2019-05-16T20:21:12.701Z,19.25
2019-05-16T20:23:44.564Z,19.21
2019-05-16T20:26:16.872Z,19.19
2019-05-16T20:28:48.875Z,19.17
2019-05-16T20:31:20.766Z,19.14
2019-05-16T20:33:52.498Z,19.13
2019-05-16T20:36:26.425Z,19.09
2019-05-16T20:38:58.162Z,19.09
2019-05-16T20:41:30.348Z,19.11
2019-05-16T20:44:02.305Z,19.12
2019-05-16T20:46:34.370Z,19.09
2019-05-16T20:52:24.043Z,19.03
2019-05-16T20:54:57.870Z,19.01
2019-05-16T20:57:29.096Z,19.03
2019-05-16T21:00:01.167Z,19.09
2019-05-16T21:02:33.223Z,19.16
2019-05-16T21:05:06.697Z,19.20
2019-05-16T21:07:38.274Z,19.23
2019-05-16T21:10:10.239Z,19.23
2019-05-16T21:12:42.948Z,19.21
2019-05-16T21:15:16.986Z,19.20
2019-05-16T21:17:48.073Z,19.21
2019-05-16T21:20:19.934Z,19.22
2019-05-16T21:22:51.592Z,19.21
2019-05-16T21:25:23.447Z,19.20
2019-05-16T21:27:57.301Z,19.20
2019-05-16T21:30:28.611Z,19.18
2019-05-16T21:33:00.473Z,19.18
2019-05-16T21:35:32.460Z,19.16
2019-05-16T21:38:08.585Z,19.15
2019-05-16T21:40:37.738Z,19.12
2019-05-16T21:43:09.548Z,19.09
2019-05-16T21:45:41.412Z,19.08
2019-05-16T21:48:13.354Z,19.07
2019-05-16T21:50:46.357Z,19.04
2019-05-16T21:53:18.316Z,19.01
2019-05-16T21:55:49.972Z,18.96
2019-05-16T21:58:21.735Z,18.92
2019-05-16T22:00:56.839Z,18.88
2019-05-16T22:03:28.286Z,18.85
2019-05-16T22:06:00.080Z,18.84
2019-05-16T22:08:32.856Z,18.80
2019-05-16T22:11:06.790Z,18.78
2019-05-16T22:13:39.693Z,18.76
2019-05-16T22:16:11.625Z,18.72
2019-05-16T22:18:44.049Z,18.69
2019-05-16T22:21:16.734Z,18.68
2019-05-16T22:23:48.596Z,18.68
2019-05-16T22:26:20.805Z,18.70
2019-05-16T22:28:52.661Z,18.71
2019-05-16T22:31:26.935Z,18.74
2019-05-16T22:33:58.702Z,18.78
2019-05-16T22:36:30.694Z,18.79
2019-05-16T22:39:02.657Z,18.77
2019-05-16T22:41:37.191Z,18.71
2019-05-16T22:44:09.083Z,18.67
2019-05-16T22:46:40.729Z,18.63
2019-05-16T22:49:12.571Z,18.61
2019-05-16T22:51:44.443Z,18.58
2019-05-16T22:54:17.201Z,18.57
2019-05-16T22:56:48.789Z,18.55
2019-05-16T22:59:20.597Z,18.54
2019-05-16T23:01:52.593Z,18.53
2019-05-16T23:04:24.436Z,18.53
2019-05-16T23:06:57.012Z,18.52
2019-05-16T23:09:28.773Z,18.47
2019-05-16T23:12:00.473Z,18.45
2019-05-16T23:14:32.387Z,18.42
2019-05-16T23:17:06.494Z,18.38
2019-05-16T23:19:37.845Z,18.38
2019-05-16T23:22:09.712Z,18.37
2019-05-16T23:24:42.492Z,18.34
2019-05-16T23:27:14.032Z,18.34
2019-05-16T23:29:47.443Z,18.34
2019-05-16T23:32:20.119Z,18.34
2019-05-16T23:34:52.362Z,18.35
2019-05-16T23:37:24.259Z,18.34
2019-05-16T23:39:56.870Z,18.32
2019-05-16T23:42:28.592Z,18.29
2019-05-16T23:45:00.244Z,18.26
2019-05-16T23:47:31.763Z,18.25
2019-05-16T23:50:07.596Z,18.25
2019-05-16T23:52:39.102Z,18.23
2019-05-16T23:55:11.181Z,18.23
2019-05-16T23:57:42.678Z,18.23
